sensor_id;sensor_type;location;lat;lon;timestamp;pressure;altitude;pressure_sealevel;temperature;humidity
69027;BME280;56080;47.594;19.116;2023-04-26T00:01:16;99551;;;10.52;73.04
69027;BME280;56080;47.594;19.116;2023-04-26T00:11:15;99555;;;10.58;72.56
69027;BME280;56080;47.594;19.116;2023-04-26T00:21:16;99562;;;10.54;73.34
69027;BME280;56080;47.594;19.116;2023-04-26T00:31:17;99572;;;10.48;74.02
69027;BME280;56080;47.594;19.116;2023-04-26T00:41:18;99574;;;10.50;73.44
69027;BME280;56080;47.594;19.116;2023-04-26T00:51:19;99588;;;10.31;73.38
69027;BME280;56080;47.594;19.116;2023-04-26T01:01:20;99600;;;10.32;73.13
69027;BME280;56080;47.594;19.116;2023-04-26T01:11:21;99598;;;10.19;72.88
69027;BME280;56080;47.594;19.116;2023-04-26T01:21:21;99600;;;9.89;73.39
69027;BME280;56080;47.594;19.116;2023-04-26T01:41:23;99609;;;9.79;73.01
69027;BME280;56080;47.594;19.116;2023-04-26T01:51:22;99616;;;9.47;73.80
69027;BME280;56080;47.594;19.116;2023-04-26T02:01:24;99624;;;9.48;73.34
69027;BME280;56080;47.594;19.116;2023-04-26T02:11:25;99627;;;9.37;73.55
69027;BME280;56080;47.594;19.116;2023-04-26T02:21:25;99637;;;9.33;73.55
69027;BME280;56080;47.594;19.116;2023-04-26T02:31:26;99639;;;9.24;73.60
69027;BME280;56080;47.594;19.116;2023-04-26T02:41:26;99647;;;9.19;73.67
69027;BME280;56080;47.594;19.116;2023-04-26T02:51:26;99658;;;9.14;73.70
69027;BME280;56080;47.594;19.116;2023-04-26T03:11:27;99680;;;8.91;74.17
69027;BME280;56080;47.594;19.116;2023-04-26T03:21:28;99698;;;8.87;73.20
69027;BME280;56080;47.594;19.116;2023-04-26T03:31:29;99707;;;8.75;73.13
69027;BME280;56080;47.594;19.116;2023-04-26T03:41:30;99717;;;8.64;72.68
69027;BME280;56080;47.594;19.116;2023-04-26T03:51:30;99722;;;8.67;72.19
69027;BME280;56080;47.594;19.116;2023-04-26T04:01:30;99735;;;8.66;71.89
69027;BME280;56080;47.594;19.116;2023-04-26T04:11:31;99749;;;8.68;71.71
69027;BME280;56080;47.594;19.116;2023-04-26T04:21:31;99750;;;8.71;71.79
69027;BME280;56080;47.594;19.116;2023-04-26T04:31:32;99744;;;8.69;71.93
69027;BME280;56080;47.594;19.116;2023-04-26T04:41:33;99773;;;8.71;71.49
69027;BME280;56080;47.594;19.116;2023-04-26T04:51:32;99785;;;8.86;69.96
69027;BME280;56080;47.594;19.116;2023-04-26T05:01:33;99803;;;8.99;69.63
69027;BME280;56080;47.594;19.116;2023-04-26T05:11:34;99820;;;9.15;68.72
69027;BME280;56080;47.594;19.116;2023-04-26T05:21:35;99823;;;11.43;61.51
69027;BME280;56080;47.594;19.116;2023-04-26T05:31:35;99827;;;12.59;55.98
69027;BME280;56080;47.594;19.116;2023-04-26T05:41:36;99829;;;13.72;51.10
69027;BME280;56080;47.594;19.116;2023-04-26T05:51:37;99833;;;13.99;49.05
69027;BME280;56080;47.594;19.116;2023-04-26T06:01:38;99832;;;14.34;46.65
69027;BME280;56080;47.594;19.116;2023-04-26T06:11:39;99839;;;14.41;44.61
69027;BME280;56080;47.594;19.116;2023-04-26T06:21:40;99855;;;12.87;46.31
69027;BME280;56080;47.594;19.116;2023-04-26T06:31:42;99860;;;11.87;48.08
69027;BME280;56080;47.594;19.116;2023-04-26T06:41:43;99859;;;11.59;48.63
69027;BME280;56080;47.594;19.116;2023-04-26T06:51:44;99857;;;11.39;48.37
69027;BME280;56080;47.594;19.116;2023-04-26T07:01:45;99859;;;11.63;47.75
69027;BME280;56080;47.594;19.116;2023-04-26T07:11:46;99870;;;14.46;41.08
69027;BME280;56080;47.594;19.116;2023-04-26T07:21:47;99881;;;12.69;43.17
69027;BME280;56080;47.594;19.116;2023-04-26T07:31:48;99869;;;12.42;42.50
69027;BME280;56080;47.594;19.116;2023-04-26T07:41:49;99885;;;11.75;44.24
69027;BME280;56080;47.594;19.116;2023-04-26T07:51:51;99904;;;13.21;41.70
69027;BME280;56080;47.594;19.116;2023-04-26T08:01:52;99906;;;15.83;35.50
69027;BME280;56080;47.594;19.116;2023-04-26T08:11:53;99909;;;14.96;35.88
69027;BME280;56080;47.594;19.116;2023-04-26T08:21:55;99907;;;16.85;33.16
69027;BME280;56080;47.594;19.116;2023-04-26T08:31:56;99936;;;16.29;33.38
69027;BME280;56080;47.594;19.116;2023-04-26T08:41:58;99934;;;15.82;33.21
69027;BME280;56080;47.594;19.116;2023-04-26T08:51:59;99930;;;15.65;34.10
69027;BME280;56080;47.594;19.116;2023-04-26T09:02:04;99945;;;16.09;34.59
69027;BME280;56080;47.594;19.116;2023-04-26T09:12:02;99950;;;15.39;34.75
69027;BME280;56080;47.594;19.116;2023-04-26T09:22:03;99943;;;15.63;34.06
69027;BME280;56080;47.594;19.116;2023-04-26T09:32:04;99933;;;15.76;33.55
69027;BME280;56080;47.594;19.116;2023-04-26T09:42:06;99930;;;15.84;32.86
69027;BME280;56080;47.594;19.116;2023-04-26T09:52:06;99939;;;15.58;33.17
69027;BME280;56080;47.594;19.116;2023-04-26T10:02:12;99929;;;15.63;33.53
69027;BME280;56080;47.594;19.116;2023-04-26T10:12:09;99929;;;14.85;33.83
69027;BME280;56080;47.594;19.116;2023-04-26T10:22:14;99932;;;15.17;34.19
69027;BME280;56080;47.594;19.116;2023-04-26T10:32:17;99930;;;15.00;34.00
69027;BME280;56080;47.594;19.116;2023-04-26T10:42:16;99945;;;15.07;33.38
69027;BME280;56080;47.594;19.116;2023-04-26T10:52:15;99948;;;14.67;33.83
69027;BME280;56080;47.594;19.116;2023-04-26T11:02:15;99940;;;15.26;32.21
69027;BME280;56080;47.594;19.116;2023-04-26T11:12:16;99931;;;14.20;33.12
69027;BME280;56080;47.594;19.116;2023-04-26T11:22:20;99930;;;14.31;33.02
69027;BME280;56080;47.594;19.116;2023-04-26T11:32:18;99931;;;14.86;32.31
69027;BME280;56080;47.594;19.116;2023-04-26T11:42:23;99947;;;14.38;34.21
69027;BME280;56080;47.594;19.116;2023-04-26T11:52:20;99943;;;13.90;34.00
69027;BME280;56080;47.594;19.116;2023-04-26T12:02:22;99959;;;14.02;33.54
69027;BME280;56080;47.594;19.116;2023-04-26T12:12:22;99938;;;14.24;31.86
69027;BME280;56080;47.594;19.116;2023-04-26T12:22:23;99942;;;14.47;32.07
69027;BME280;56080;47.594;19.116;2023-04-26T12:42:25;99935;;;13.58;32.93
69027;BME280;56080;47.594;19.116;2023-04-26T12:52:26;99951;;;13.80;32.62
69027;BME280;56080;47.594;19.116;2023-04-26T13:12:28;99969;;;13.67;32.47
69027;BME280;56080;47.594;19.116;2023-04-26T13:22:29;99982;;;14.01;32.91
69027;BME280;56080;47.594;19.116;2023-04-26T13:32:31;99973;;;14.30;32.59
69027;BME280;56080;47.594;19.116;2023-04-26T13:42:31;99978;;;13.53;33.87
69027;BME280;56080;47.594;19.116;2023-04-26T13:52:32;99982;;;13.40;34.79
69027;BME280;56080;47.594;19.116;2023-04-26T14:02:33;99991;;;13.55;34.07
69027;BME280;56080;47.594;19.116;2023-04-26T14:12:34;100004;;;14.08;34.43
69027;BME280;56080;47.594;19.116;2023-04-26T14:22:34;100011;;;13.93;34.99
69027;BME280;56080;47.594;19.116;2023-04-26T14:32:36;100014;;;13.29;35.23
69027;BME280;56080;47.594;19.116;2023-04-26T14:42:37;100016;;;13.54;33.68
69027;BME280;56080;47.594;19.116;2023-04-26T14:52:37;100018;;;13.49;33.44
69027;BME280;56080;47.594;19.116;2023-04-26T15:02:38;100031;;;13.30;34.92
69027;BME280;56080;47.594;19.116;2023-04-26T15:22:40;100037;;;12.61;36.14
69027;BME280;56080;47.594;19.116;2023-04-26T15:32:41;100047;;;12.84;35.64
69027;BME280;56080;47.594;19.116;2023-04-26T15:42:41;100043;;;12.86;35.72
69027;BME280;56080;47.594;19.116;2023-04-26T15:52:42;100041;;;12.63;34.79
69027;BME280;56080;47.594;19.116;2023-04-26T16:02:43;100044;;;12.86;35.41
69027;BME280;56080;47.594;19.116;2023-04-26T16:12:44;100052;;;12.49;35.04
69027;BME280;56080;47.594;19.116;2023-04-26T16:22:45;100049;;;12.91;35.21
69027;BME280;56080;47.594;19.116;2023-04-26T16:42:47;100072;;;12.45;35.23
69027;BME280;56080;47.594;19.116;2023-04-26T16:52:48;100088;;;12.40;35.69
69027;BME280;56080;47.594;19.116;2023-04-26T17:02:49;100098;;;12.32;36.44
69027;BME280;56080;47.594;19.116;2023-04-26T17:12:49;100103;;;12.13;37.76
69027;BME280;56080;47.594;19.116;2023-04-26T17:22:50;100108;;;12.01;37.46
69027;BME280;56080;47.594;19.116;2023-04-26T17:32:51;100115;;;12.02;37.55
69027;BME280;56080;47.594;19.116;2023-04-26T17:42:52;100131;;;11.95;38.13
69027;BME280;56080;47.594;19.116;2023-04-26T17:52:52;100144;;;11.94;38.17
69027;BME280;56080;47.594;19.116;2023-04-26T18:02:56;100150;;;11.64;37.63
69027;BME280;56080;47.594;19.116;2023-04-26T18:12:55;100162;;;11.57;37.23
69027;BME280;56080;47.594;19.116;2023-04-26T18:22:55;100172;;;11.33;38.08
69027;BME280;56080;47.594;19.116;2023-04-26T18:32:56;100183;;;11.28;38.24
69027;BME280;56080;47.594;19.116;2023-04-26T19:02:59;100219;;;10.76;39.15
69027;BME280;56080;47.594;19.116;2023-04-26T19:13:00;100225;;;10.59;39.59
69027;BME280;56080;47.594;19.116;2023-04-26T19:23:00;100226;;;10.46;39.32
69027;BME280;56080;47.594;19.116;2023-04-26T19:33:00;100239;;;10.46;39.61
69027;BME280;56080;47.594;19.116;2023-04-26T19:43:02;100237;;;10.34;40.33
69027;BME280;56080;47.594;19.116;2023-04-26T19:53:02;100251;;;10.05;41.60
69027;BME280;56080;47.594;19.116;2023-04-26T20:03:03;100259;;;9.84;42.26
69027;BME280;56080;47.594;19.116;2023-04-26T20:13:04;100270;;;9.83;42.83
69027;BME280;56080;47.594;19.116;2023-04-26T20:23:04;100278;;;9.46;43.92
69027;BME280;56080;47.594;19.116;2023-04-26T20:33:05;100290;;;9.24;44.76
69027;BME280;56080;47.594;19.116;2023-04-26T20:43:05;100295;;;9.17;44.86
69027;BME280;56080;47.594;19.116;2023-04-26T20:53:06;100299;;;9.00;45.31
69027;BME280;56080;47.594;19.116;2023-04-26T21:03:07;100295;;;8.86;46.98
69027;BME280;56080;47.594;19.116;2023-04-26T21:13:07;100304;;;8.62;47.82
69027;BME280;56080;47.594;19.116;2023-04-26T21:23:07;100324;;;8.12;50.16
69027;BME280;56080;47.594;19.116;2023-04-26T21:33:08;100333;;;7.80;51.92
69027;BME280;56080;47.594;19.116;2023-04-26T21:43:08;100337;;;7.86;52.99
69027;BME280;56080;47.594;19.116;2023-04-26T21:53:09;100349;;;7.59;54.61
69027;BME280;56080;47.594;19.116;2023-04-26T22:03:10;100347;;;7.62;53.90
69027;BME280;56080;47.594;19.116;2023-04-26T22:13:10;100359;;;7.55;55.64
69027;BME280;56080;47.594;19.116;2023-04-26T22:23:11;100365;;;6.73;59.35
69027;BME280;56080;47.594;19.116;2023-04-26T22:33:11;100365;;;7.16;59.56
69027;BME280;56080;47.594;19.116;2023-04-26T22:43:11;100379;;;6.68;61.41
69027;BME280;56080;47.594;19.116;2023-04-26T22:53:12;100382;;;6.12;63.27
69027;BME280;56080;47.594;19.116;2023-04-26T23:03:12;100384;;;6.28;63.24
69027;BME280;56080;47.594;19.116;2023-04-26T23:13:13;100393;;;6.31;63.07
69027;BME280;56080;47.594;19.116;2023-04-26T23:23:13;100395;;;5.84;65.40
69027;BME280;56080;47.594;19.116;2023-04-26T23:33:13;100422;;;5.81;65.53
69027;BME280;56080;47.594;19.116;2023-04-26T23:43:14;100418;;;5.59;68.45
69027;BME280;56080;47.594;19.116;2023-04-26T23:53:14;100409;;;6.02;66.26
